Time;durP1;ratioP1;P1;durP2;ratioP2;P2;SDS_P1;SDS_P2;PMS_P1;PMS_P2;Temp;Humidity;BMP_temperature;BMP_pressure;BME280_temperature;BME280_humidity;BME280_pressure;Samples;Min_cycle;Max_cycle;Signal;HPM_P1;HPM_P2
2021/08/01 00:02:13;;;;;;;13.25;5.72;;;;;;;17.54;72.61;100674.38;5043767;28;20410;-66
2021/08/01 00:04:39;;;;;;;12.18;5.50;;;;;;;17.52;72.22;100673.75;5074836;28;20127;-66
2021/08/01 00:07:06;;;;;;;14.73;6.50;;;;;;;17.41;72.88;100678.66;5075003;28;20119;-66
2021/08/01 00:09:33;;;;;;;15.90;6.47;;;;;;;17.35;72.90;100670.59;5092214;28;20127;-66
2021/08/01 00:12:00;;;;;;;17.65;6.78;;;;;;;17.59;72.21;100667.38;5092452;28;20113;-66
2021/08/01 00:14:27;;;;;;;13.82;6.68;;;;;;;17.28;73.47;100675.91;5092848;28;20492;-66
2021/08/01 00:16:53;;;;;;;17.30;7.25;;;;;;;17.21;73.78;100667.88;5074981;28;20089;-66
2021/08/01 00:19:20;;;;;;;19.30;7.63;;;;;;;17.33;73.66;100661.94;5074493;28;20040;-66
2021/08/01 00:21:47;;;;;;;19.17;7.60;;;;;;;17.23;73.88;100671.16;5074847;28;20511;-66
2021/08/01 00:24:14;;;;;;;14.27;7.70;;;;;;;17.19;73.90;100661.03;5074378;28;20056;-66
2021/08/01 00:26:40;;;;;;;16.25;8.00;;;;;;;17.29;74.02;100660.69;5035839;28;20100;-66
2021/08/01 00:29:07;;;;;;;18.40;7.68;;;;;;;17.50;73.19;100665.91;5092301;28;20051;-66
2021/08/01 00:31:34;;;;;;;16.38;7.53;;;;;;;17.31;73.77;100664.00;5058160;28;20389;-66
2021/08/01 00:34:01;;;;;;;16.42;8.23;;;;;;;17.25;73.95;100655.72;5074406;28;20051;-66
2021/08/01 00:36:28;;;;;;;16.55;8.38;;;;;;;17.38;73.41;100648.75;5091905;28;20036;-66
2021/08/01 00:38:55;;;;;;;16.85;8.75;;;;;;;17.35;73.59;100647.28;5070290;28;20063;-66
2021/08/01 00:41:21;;;;;;;19.17;9.60;;;;;;;17.21;74.17;100643.75;5054280;28;20051;-66
2021/08/01 00:43:48;;;;;;;18.33;8.80;;;;;;;17.32;73.91;100642.34;5072085;28;20044;-66
2021/08/01 00:46:16;;;;;;;20.30;8.85;;;;;;;17.15;74.55;100641.03;5071161;28;20066;-66
2021/08/01 00:48:43;;;;;;;19.80;9.65;;;;;;;17.08;74.68;100641.84;5070384;28;20040;-66
2021/08/01 00:51:12;;;;;;;17.80;9.10;;;;;;;17.03;74.92;100641.59;5071885;28;20037;-66
2021/08/01 00:53:40;;;;;;;17.77;9.00;;;;;;;16.99;75.21;100647.53;5071779;28;20067;-65
2021/08/01 00:56:08;;;;;;;18.15;9.30;;;;;;;16.96;75.32;100651.47;5071870;28;20052;-66
2021/08/01 00:58:35;;;;;;;24.85;9.85;;;;;;;16.95;75.36;100643.59;5071450;28;20379;-66
2021/08/01 01:01:07;;;;;;;17.10;8.70;;;;;;;16.94;75.59;100653.50;5072170;28;20123;-66
2021/08/01 01:03:43;;;;;;;22.73;9.30;;;;;;;17.04;75.18;100647.78;5072134;28;20036;-66
2021/08/01 01:06:22;;;;;;;18.77;8.85;;;;;;;17.01;75.38;100645.50;5071955;28;20048;-66
2021/08/01 01:08:57;;;;;;;17.05;8.88;;;;;;;17.07;74.80;100642.03;5071531;28;20098;-66
2021/08/01 01:11:47;;;;;;;15.93;8.25;;;;;;;17.05;75.37;100647.59;5072396;28;20124;-66
2021/08/01 01:14:20;;;;;;;17.08;8.85;;;;;;;17.04;75.18;100645.91;5072001;28;20044;-66
2021/08/01 01:16:56;;;;;;;18.75;9.05;;;;;;;17.31;74.18;100637.19;5072055;28;20044;-66
2021/08/01 01:22:24;;;;;;;17.92;8.65;;;;;;;17.01;75.43;100640.97;5129132;27;20846;-64
2021/08/01 01:25:21;;;;;;;19.58;9.10;;;;;;;16.87;75.89;100640.06;5130716;28;20036;-66
2021/08/01 01:28:01;;;;;;;15.60;8.65;;;;;;;16.98;75.60;100641.38;5112428;28;20396;-66
2021/08/01 01:30:30;;;;;;;16.05;8.65;;;;;;;16.99;75.80;100639.50;5130959;27;20094;-66
2021/08/01 01:33:07;;;;;;;17.50;8.45;;;;;;;16.97;75.75;100634.38;5130353;27;20055;-66
2021/08/01 01:35:40;;;;;;;16.67;8.45;;;;;;;17.20;75.22;100630.53;5130592;27;20040;-66
2021/08/01 01:38:07;;;;;;;17.95;8.77;;;;;;;17.13;75.18;100635.03;5129809;27;20552;-66
2021/08/01 01:40:54;;;;;;;17.13;8.07;;;;;;;17.04;75.38;100634.38;5129401;28;20492;-66
2021/08/01 01:43:33;;;;;;;17.92;8.82;;;;;;;17.05;75.59;100634.19;5128669;28;20096;-66
2021/08/01 01:46:01;;;;;;;20.20;9.40;;;;;;;17.12;75.17;100639.59;5130643;27;20131;-66
2021/08/01 01:48:28;;;;;;;20.85;9.85;;;;;;;16.98;75.83;100637.88;5130261;27;20127;-66
2021/08/01 01:50:55;;;;;;;24.13;9.20;;;;;;;16.93;76.00;100627.72;5129535;27;20156;-66
2021/08/01 01:53:23;;;;;;;18.88;9.88;;;;;;;17.10;75.33;100633.59;5130490;27;20074;-66
2021/08/01 01:55:51;;;;;;;19.00;8.90;;;;;;;16.87;76.31;100639.25;5129721;27;20046;-67
2021/08/01 01:58:19;;;;;;;19.63;9.07;;;;;;;16.87;76.18;100636.56;5129183;27;20043;-66
2021/08/01 02:00:46;;;;;;;18.00;9.23;;;;;;;16.89;76.08;100631.84;5128712;28;20028;-66
2021/08/01 02:03:13;;;;;;;18.30;8.88;;;;;;;16.86;76.35;100641.13;5130189;27;20093;-66
2021/08/01 02:06:00;;;;;;;22.73;9.43;;;;;;;17.11;74.95;100643.28;5129321;28;20384;-66
2021/08/01 02:09:02;;;;;;;17.88;9.75;;;;;;;16.94;75.47;100644.66;5129856;27;20039;-66
2021/08/01 02:11:55;;;;;;;;;;;;;;;16.79;76.22;100642.03;5130154;28;20190;-66
2021/08/01 02:14:44;;;;;;;16.77;9.50;;;;;;;16.74;76.33;100653.38;5128445;28;19926;-66
2021/08/01 02:17:14;;;;;;;22.15;12.18;;;;;;;16.84;76.18;100655.72;5128713;28;20047;-66
2021/08/01 02:19:44;;;;;;;20.83;10.65;;;;;;;16.70;76.42;100658.28;5129933;27;20044;-66
2021/08/01 02:22:13;;;;;;;;;;;;;;;16.82;76.28;100650.50;5128827;27;20127;-66
2021/08/01 02:24:42;;;;;;;15.50;8.52;;;;;;;16.85;76.36;100646.66;5129649;27;19926;-66
2021/08/01 02:27:10;;;;;;;22.73;9.65;;;;;;;16.90;75.43;100638.88;5129026;27;20051;-66
2021/08/01 02:29:38;;;;;;;18.08;10.38;;;;;;;16.70;76.37;100638.72;5129175;27;20043;-66
2021/08/01 02:32:07;;;;;;;19.58;10.32;;;;;;;16.73;76.25;100640.16;5124430;27;20043;-66
2021/08/01 02:34:37;;;;;;;16.02;9.98;;;;;;;16.67;76.23;100647.97;5114936;28;20097;-66
2021/08/01 02:37:06;;;;;;;21.85;10.18;;;;;;;16.75;75.88;100646.97;5115542;28;20511;-66
2021/08/01 02:39:35;;;;;;;20.35;10.05;;;;;;;16.53;76.87;100648.88;5115260;28;20044;-66
2021/08/01 02:42:04;;;;;;;21.98;10.43;;;;;;;16.60;76.71;100649.75;5114255;28;20074;-66
2021/08/01 02:44:35;;;;;;;19.70;9.65;;;;;;;16.43;77.31;100651.91;5115518;28;20047;-66
2021/08/01 02:47:08;;;;;;;21.80;9.95;;;;;;;16.47;77.56;100655.03;5114383;28;20126;-66
2021/08/01 02:49:42;;;;;;;20.27;11.05;;;;;;;16.66;76.07;100650.81;5115638;28;20070;-66
2021/08/01 02:52:15;;;;;;;20.40;10.43;;;;;;;16.48;76.90;100651.31;5115125;28;20075;-66
2021/08/01 02:54:47;;;;;;;20.40;10.52;;;;;;;16.43;76.94;100646.56;5101970;28;20130;-66
2021/08/01 02:57:15;;;;;;;19.92;9.80;;;;;;;16.48;76.70;100648.63;5115257;28;20068;-66
2021/08/01 02:59:45;;;;;;;19.50;10.98;;;;;;;16.44;76.68;100653.56;5115118;28;20043;-66
2021/08/01 03:02:12;;;;;;;19.33;10.75;;;;;;;16.40;76.91;100646.94;5113864;28;20046;-66
2021/08/01 03:04:49;;;;;;;25.15;10.77;;;;;;;16.36;76.90;100643.00;5115166;28;20054;-66
2021/08/01 03:07:18;;;;;;;18.67;10.07;;;;;;;16.29;77.03;100650.97;5114092;28;20126;-66
2021/08/01 03:09:46;;;;;;;20.75;10.15;;;;;;;16.28;77.09;100643.13;5113786;28;20127;-66
2021/08/01 03:12:15;;;;;;;17.67;10.55;;;;;;;16.24;77.04;100644.56;5115578;28;20123;-66
2021/08/01 03:14:43;;;;;;;18.63;9.23;;;;;;;16.47;76.24;100645.16;5097130;28;20085;-66
2021/08/01 03:17:10;;;;;;;17.50;9.32;;;;;;;16.37;76.48;100651.84;5096372;28;20531;-66
2021/08/01 03:19:39;;;;;;;20.42;9.77;;;;;;;16.38;76.23;100649.00;5113396;28;20044;-66
2021/08/01 03:22:08;;;;;;;16.65;9.77;;;;;;;16.36;76.19;100645.69;5113199;28;20511;-66
2021/08/01 03:24:40;;;;;;;16.05;8.60;;;;;;;16.34;76.12;100650.41;5114981;28;20096;-66
2021/08/01 03:27:12;;;;;;;18.17;9.15;;;;;;;16.31;75.97;100646.25;5095716;28;20492;-66
2021/08/01 03:29:39;;;;;;;19.08;9.55;;;;;;;16.38;75.80;100645.50;5075377;28;20093;-66
2021/08/01 03:32:13;;;;;;;17.08;9.10;;;;;;;16.42;75.36;100652.09;5094391;28;20040;-66
2021/08/01 03:34:40;;;;;;;18.80;8.48;;;;;;;16.27;76.03;100647.66;5099485;28;20488;-66
2021/08/01 03:37:06;;;;;;;20.73;9.50;;;;;;;16.48;75.24;100646.81;5114310;28;20040;-66
2021/08/01 03:39:54;;;;;;;19.80;8.93;;;;;;;16.40;74.96;100654.16;5114519;28;20065;-66
2021/08/01 03:42:21;;;;;;;21.95;8.38;;;;;;;16.37;75.01;100658.06;5113057;28;20036;-66
2021/08/01 03:44:48;;;;;;;15.23;8.55;;;;;;;16.32;75.40;100652.47;5113217;28;20118;-66
2021/08/01 03:47:16;;;;;;;18.88;8.68;;;;;;;16.37;75.11;100657.22;5112797;28;20135;-66
2021/08/01 03:49:43;;;;;;;17.20;8.15;;;;;;;16.22;75.43;100657.31;5113166;28;20040;-66
2021/08/01 03:52:11;;;;;;;19.33;8.15;;;;;;;16.27;75.34;100654.88;5114124;28;20059;-66
2021/08/01 03:54:37;;;;;;;17.08;7.63;;;;;;;16.25;75.11;100655.06;5112961;28;20126;-66
2021/08/01 03:57:05;;;;;;;15.93;7.57;;;;;;;16.25;75.32;100648.91;5113020;28;20131;-66
2021/08/01 03:59:35;;;;;;;18.02;7.72;;;;;;;16.30;75.11;100649.16;5095393;28;20574;-66
2021/08/01 04:02:03;;;;;;;18.40;7.68;;;;;;;16.30;74.85;100658.00;5114265;28;20100;-66
2021/08/01 04:04:30;;;;;;;15.82;6.93;;;;;;;16.25;74.93;100654.25;5114134;28;20063;-66
2021/08/01 04:06:57;;;;;;;14.85;7.20;;;;;;;16.19;75.00;100661.22;5112551;28;20389;-66
2021/08/01 04:09:23;;;;;;;18.75;7.60;;;;;;;16.16;74.80;100655.41;5113116;28;20111;-66
2021/08/01 04:11:50;;;;;;;14.50;7.43;;;;;;;15.83;75.93;100666.63;5113856;28;20139;-66
2021/08/01 04:14:18;;;;;;;15.50;7.03;;;;;;;15.89;75.83;100657.84;5112825;28;20047;-66
2021/08/01 04:16:44;;;;;;;16.90;7.55;;;;;;;15.81;76.05;100660.63;5113670;28;20093;-66
2021/08/01 04:19:13;;;;;;;17.58;7.50;;;;;;;15.82;76.02;100662.28;5113342;28;20073;-66
2021/08/01 04:21:41;;;;;;;17.33;7.40;;;;;;;15.95;75.81;100659.72;5113133;28;20052;-66
2021/08/01 04:24:08;;;;;;;19.58;8.07;;;;;;;15.95;75.49;100659.72;5112175;28;20054;-66
2021/08/01 04:26:35;;;;;;;19.83;8.10;;;;;;;15.80;76.03;100661.66;5111822;28;20035;-66
2021/08/01 04:29:03;;;;;;;21.95;8.57;;;;;;;15.67;76.72;100656.97;5112239;28;20042;-64
2021/08/01 04:31:30;;;;;;;20.45;8.50;;;;;;;15.87;75.72;100659.88;5113951;28;20115;-65
2021/08/01 04:33:57;;;;;;;18.48;8.45;;;;;;;15.80;76.24;100658.97;5112254;28;20039;-64
2021/08/01 04:36:24;;;;;;;24.00;9.10;;;;;;;15.74;76.24;100652.56;5113266;28;20050;-65
2021/08/01 04:38:51;;;;;;;19.20;9.85;;;;;;;15.67;76.36;100648.94;5112301;28;20074;-65
2021/08/01 04:41:17;;;;;;;20.80;9.30;;;;;;;15.62;76.94;100651.34;5113320;28;20039;-65
2021/08/01 04:43:44;;;;;;;22.50;9.40;;;;;;;15.48;77.45;100651.22;5112181;28;20043;-65
2021/08/01 04:46:11;;;;;;;23.40;10.20;;;;;;;15.53;77.13;100650.63;5112183;28;20035;-65
2021/08/01 04:48:39;;;;;;;19.85;10.18;;;;;;;15.48;77.33;100653.03;5113317;28;20047;-65
2021/08/01 04:51:05;;;;;;;23.40;11.38;;;;;;;15.36;77.79;100658.06;5111406;28;20088;-65
2021/08/01 04:53:33;;;;;;;22.23;10.73;;;;;;;15.41;77.96;100658.34;5111733;28;20391;-65
2021/08/01 04:56:00;;;;;;;27.13;10.38;;;;;;;15.44;77.71;100655.25;5111252;28;20050;-65
2021/08/01 04:58:26;;;;;;;30.17;11.95;;;;;;;15.48;77.29;100653.03;5112799;28;20039;-65
2021/08/01 05:00:53;;;;;;;29.50;12.68;;;;;;;15.47;77.31;100640.72;5111975;28;20053;-65
2021/08/01 05:03:20;;;;;;;34.28;13.80;;;;;;;15.50;77.27;100646.50;5112946;28;20046;-65
2021/08/01 05:05:47;;;;;;;27.05;12.30;;;;;;;15.52;77.31;100647.16;5111629;28;20113;-65
2021/08/01 05:08:14;;;;;;;27.70;12.55;;;;;;;15.65;76.80;100656.34;5113102;28;20040;-65
2021/08/01 05:10:40;;;;;;;33.55;14.43;;;;;;;15.64;76.64;100660.81;5111802;28;20040;-65
2021/08/01 05:13:07;;;;;;;31.67;14.20;;;;;;;15.53;77.16;100664.00;5112700;28;20111;-65
2021/08/01 05:15:34;;;;;;;41.95;15.77;;;;;;;15.43;77.17;100658.16;5113092;28;20047;-65
2021/08/01 05:18:02;;;;;;;32.65;15.07;;;;;;;15.38;77.81;100666.72;5111968;28;20043;-65
2021/08/01 05:20:30;;;;;;;38.40;15.48;;;;;;;15.49;76.83;100654.72;5112831;28;20131;-65
2021/08/01 05:22:57;;;;;;;38.20;15.20;;;;;;;15.29;77.90;100665.97;5111132;28;20031;-65
2021/08/01 05:25:23;;;;;;;30.80;15.45;;;;;;;15.34;77.56;100663.59;5108278;28;20036;-65
2021/08/01 05:27:50;;;;;;;31.48;14.43;;;;;;;15.62;76.60;100668.22;5089182;28;20054;-65
2021/08/01 05:30:17;;;;;;;40.05;14.80;;;;;;;15.50;76.66;100667.91;5091958;28;20044;-65
2021/08/01 05:32:44;;;;;;;30.00;14.30;;;;;;;15.46;76.88;100663.94;5104132;28;20042;-65
2021/08/01 05:35:10;;;;;;;31.67;14.15;;;;;;;15.48;77.13;100666.41;5112329;28;20043;-66
2021/08/01 05:37:37;;;;;;;27.15;13.45;;;;;;;15.55;76.68;100665.50;5112308;28;20039;-65
2021/08/01 05:40:04;;;;;;;28.58;13.15;;;;;;;15.57;76.69;100664.44;5112781;28;20129;-65
2021/08/01 05:42:33;;;;;;;31.05;12.60;;;;;;;15.60;76.52;100669.44;5111300;28;20036;-65
2021/08/01 05:45:00;;;;;;;28.77;13.43;;;;;;;15.68;76.10;100669.31;5112105;28;20043;-65
2021/08/01 05:47:26;;;;;;;28.27;12.43;;;;;;;15.59;76.77;100657.91;5111140;28;20074;-65
2021/08/01 05:49:53;;;;;;;26.85;11.57;;;;;;;15.61;76.44;100661.22;5110819;28;20044;-66
2021/08/01 05:52:20;;;;;;;29.83;11.38;;;;;;;15.53;77.16;100654.16;5094376;28;20084;-65
2021/08/01 05:54:51;;;;;;;25.77;10.98;;;;;;;15.63;76.50;100656.50;5112610;28;20047;-65
2021/08/01 05:57:18;;;;;;;26.02;11.18;;;;;;;15.38;76.87;100653.34;5112360;28;20122;-65
2021/08/01 05:59:44;;;;;;;24.17;9.75;;;;;;;15.59;76.14;100655.25;5110532;28;20058;-65
2021/08/01 06:02:12;;;;;;;22.90;10.30;;;;;;;15.50;76.71;100661.72;5112202;28;20047;-65
2021/08/01 06:04:39;;;;;;;20.42;9.15;;;;;;;15.51;76.39;100658.84;5111208;28;20051;-65
2021/08/01 06:07:06;;;;;;;22.08;9.02;;;;;;;15.65;75.50;100657.16;5111944;28;20136;-65
2021/08/01 06:09:33;;;;;;;29.63;9.13;;;;;;;15.77;74.96;100660.19;5116250;28;20040;-65
2021/08/01 06:12:00;;;;;;;23.80;8.32;;;;;;;15.69;74.96;100655.75;5115099;28;20067;-65
2021/08/01 06:14:27;;;;;;;23.90;8.52;;;;;;;15.60;75.63;100664.09;5115618;28;20062;-65
2021/08/01 06:16:54;;;;;;;24.50;7.88;;;;;;;15.64;75.72;100662.69;5098075;28;20488;-65
2021/08/01 06:19:20;;;;;;;26.13;8.52;;;;;;;15.65;75.39;100657.16;5098019;28;20039;-65
2021/08/01 06:21:47;;;;;;;25.15;7.40;;;;;;;15.63;75.58;100653.84;5115674;28;20047;-65
2021/08/01 06:24:14;;;;;;;26.65;7.72;;;;;;;15.73;75.58;100649.03;5115758;28;20036;-65
2021/08/01 06:26:42;;;;;;;21.65;7.53;;;;;;;15.78;75.05;100653.00;5113758;28;20061;-65
2021/08/01 06:29:10;;;;;;;20.67;7.05;;;;;;;15.77;75.41;100646.81;5115587;28;20416;-65
2021/08/01 06:31:37;;;;;;;18.52;6.80;;;;;;;15.91;74.88;100647.78;5114273;28;20135;-65
2021/08/01 06:34:04;;;;;;;16.10;6.55;;;;;;;15.90;75.38;100660.31;5114809;28;20404;-65
2021/08/01 06:36:30;;;;;;;19.27;6.93;;;;;;;16.15;73.79;100654.56;5114343;28;20492;-65
2021/08/01 06:38:57;;;;;;;19.85;6.95;;;;;;;16.26;73.76;100655.88;5115619;28;20043;-65
2021/08/01 06:41:24;;;;;;;21.27;6.47;;;;;;;16.33;73.08;100653.28;5113874;28;20434;-65
2021/08/01 06:43:50;;;;;;;27.95;6.18;;;;;;;16.24;72.65;100652.59;5115235;28;20048;-65
2021/08/01 06:46:18;;;;;;;19.15;6.72;;;;;;;16.33;72.04;100662.13;5114386;28;20123;-65
2021/08/01 06:48:44;;;;;;;28.02;6.57;;;;;;;16.19;72.49;100650.50;5115527;28;20559;-65
2021/08/01 06:51:11;;;;;;;22.75;6.47;;;;;;;16.23;72.33;100656.28;5095030;28;20373;-65
2021/08/01 06:53:38;;;;;;;20.33;6.38;;;;;;;16.15;73.02;100656.41;5115504;28;20489;-65
2021/08/01 06:56:06;;;;;;;22.88;6.97;;;;;;;16.28;72.78;100659.19;5113425;28;20071;-65
2021/08/01 06:58:33;;;;;;;22.25;6.40;;;;;;;16.17;73.13;100652.56;5114641;28;20051;-65
2021/08/01 07:01:02;;;;;;;26.42;6.10;;;;;;;16.14;73.59;100647.56;5113927;28;20063;-65
2021/08/01 07:03:28;;;;;;;17.65;6.60;;;;;;;16.28;72.34;100643.13;5113625;28;20514;-65
2021/08/01 07:05:56;;;;;;;24.00;5.82;;;;;;;16.26;72.83;100643.34;5114818;28;20050;-65
2021/08/01 07:08:23;;;;;;;19.38;6.28;;;;;;;16.23;72.78;100648.25;5114910;28;20105;-65
2021/08/01 07:10:49;;;;;;;21.17;6.57;;;;;;;16.26;72.60;100654.06;5114975;28;20055;-65
2021/08/01 07:13:17;;;;;;;28.83;8.60;;;;;;;16.40;72.44;100657.66;5096652;28;20035;-65
2021/08/01 07:15:44;;;;;;;21.00;5.95;;;;;;;16.54;72.04;100658.59;5113703;28;20510;-66
2021/08/01 07:18:11;;;;;;;18.85;6.35;;;;;;;16.69;72.36;100661.16;5113498;28;20035;-66
2021/08/01 07:20:37;;;;;;;22.17;6.50;;;;;;;16.93;71.08;100657.19;5114642;28;20156;-66
2021/08/01 07:23:06;;;;;;;25.92;6.32;;;;;;;17.04;69.83;100655.81;5112762;28;20067;-65
2021/08/01 07:25:33;;;;;;;25.90;6.05;;;;;;;17.02;69.52;100663.22;5109136;28;20043;-65
2021/08/01 07:28:00;;;;;;;20.42;6.20;;;;;;;16.86;69.76;100662.53;5094321;28;20503;-65
2021/08/01 07:30:27;;;;;;;23.33;5.93;;;;;;;17.00;69.06;100662.59;5112018;28;20047;-65
2021/08/01 07:32:53;;;;;;;24.73;7.13;;;;;;;17.10;68.49;100663.06;5114754;28;20035;-66
2021/08/01 07:35:20;;;;;;;21.65;5.68;;;;;;;16.99;69.56;100667.16;5113473;28;20130;-66
2021/08/01 07:37:47;;;;;;;21.85;7.03;;;;;;;16.89;69.17;100672.84;5112631;28;20038;-66
2021/08/01 07:40:14;;;;;;;17.67;6.55;;;;;;;16.89;68.51;100677.38;5095288;28;20092;-66
2021/08/01 07:42:40;;;;;;;15.98;6.05;;;;;;;16.86;68.95;100664.38;5114100;28;20032;-66
2021/08/01 07:45:21;;;;;;;27.90;6.47;;;;;;;17.08;70.28;100665.09;5113710;28;20043;-66
2021/08/01 07:47:48;;;;;;;20.00;6.45;;;;;;;17.13;68.33;100670.69;5112514;28;20043;-66
2021/08/01 07:50:14;;;;;;;19.30;6.75;;;;;;;17.22;67.71;100664.16;5113855;28;20412;-66
2021/08/01 07:52:41;;;;;;;22.20;6.68;;;;;;;17.39;66.84;100661.97;5114202;27;20126;-66
2021/08/01 07:55:09;;;;;;;24.83;7.30;;;;;;;17.53;66.95;100668.19;5113073;28;20126;-66
2021/08/01 07:57:37;;;;;;;25.52;7.25;;;;;;;17.37;67.37;100669.38;5114272;28;20100;-66
2021/08/01 08:00:05;;;;;;;20.17;6.47;;;;;;;17.18;67.50;100675.47;5113881;28;20040;-66
2021/08/01 08:02:41;;;;;;;16.92;6.28;;;;;;;17.29;67.75;100680.25;5113768;28;20058;-66
2021/08/01 08:05:09;;;;;;;16.60;6.75;;;;;;;17.38;66.67;100671.03;5112497;28;20105;-66
2021/08/01 08:07:36;;;;;;;18.40;6.43;;;;;;;17.55;66.13;100676.84;5113706;28;20052;-66
2021/08/01 08:10:05;;;;;;;20.10;6.60;;;;;;;17.48;65.76;100675.19;5113573;28;20043;-66
2021/08/01 08:12:31;;;;;;;24.38;6.78;;;;;;;17.55;65.46;100679.53;5112151;28;20039;-66
2021/08/01 08:14:58;;;;;;;21.92;6.38;;;;;;;17.56;65.26;100680.38;5113518;28;20039;-66
2021/08/01 08:17:25;;;;;;;16.25;6.68;;;;;;;17.54;65.37;100687.81;5111855;28;20462;-66
2021/08/01 08:19:52;;;;;;;23.10;6.60;;;;;;;17.55;64.93;100684.88;5113428;28;20039;-66
2021/08/01 08:22:19;;;;;;;19.38;7.32;;;;;;;17.51;65.58;100688.19;5113421;28;20040;-66
2021/08/01 08:24:45;;;;;;;17.80;8.45;;;;;;;17.28;66.69;100697.38;5113733;28;20043;-66
2021/08/01 08:27:12;;;;;;;18.27;6.68;;;;;;;17.47;64.94;100695.81;5095244;28;20067;-66
2021/08/01 08:29:39;;;;;;;25.15;6.82;;;;;;;17.30;65.54;100694.50;5112306;28;20039;-66
2021/08/01 08:32:06;;;;;;;19.38;6.63;;;;;;;17.34;65.89;100693.09;5113928;28;20050;-66
2021/08/01 08:34:33;;;;;;;24.38;7.60;;;;;;;17.21;66.06;100694.66;5113507;28;20143;-66
2021/08/01 08:37:01;;;;;;;21.33;6.95;;;;;;;17.17;66.01;100700.63;5110596;28;20377;-66
2021/08/01 08:39:28;;;;;;;23.90;7.28;;;;;;;17.17;65.28;100701.47;5111765;28;20077;-66
2021/08/01 08:41:58;;;;;;;22.52;7.53;;;;;;;16.92;65.76;100706.47;5112900;28;20047;-66
2021/08/01 08:44:27;;;;;;;17.17;7.18;;;;;;;16.98;66.66;100707.53;5111356;28;20039;-66
2021/08/01 08:46:55;;;;;;;18.33;7.63;;;;;;;16.87;66.76;100704.38;5113204;28;20040;-66
2021/08/01 08:49:23;;;;;;;19.52;7.43;;;;;;;16.82;67.25;100703.28;5111683;28;20123;-66
2021/08/01 08:51:53;;;;;;;19.42;7.72;;;;;;;16.75;68.13;100708.56;5112757;28;20377;-65
2021/08/01 08:54:26;;;;;;;16.40;6.97;;;;;;;17.01;66.93;100707.16;5113490;28;20082;-66
2021/08/01 08:56:55;;;;;;;19.17;7.15;;;;;;;17.11;65.78;100712.13;5112586;28;20044;-66
2021/08/01 08:59:24;;;;;;;17.38;7.07;;;;;;;17.08;64.74;100719.56;5112639;28;20077;-66
2021/08/01 09:01:51;;;;;;;15.82;6.72;;;;;;;17.02;64.68;100714.97;5112921;28;20472;-66
2021/08/01 09:04:18;;;;;;;18.05;6.65;;;;;;;16.99;64.59;100717.22;5094806;28;20457;-66
2021/08/01 09:06:45;;;;;;;17.25;6.75;;;;;;;17.34;64.06;100711.84;5093130;28;20054;-66
2021/08/01 09:09:13;;;;;;;17.17;6.38;;;;;;;17.52;63.68;100717.50;5112492;28;20050;-66
2021/08/01 09:11:40;;;;;;;17.60;6.68;;;;;;;17.63;62.57;100714.22;5112559;28;20598;-66
2021/08/01 09:14:18;;;;;;;17.80;6.18;;;;;;;17.87;62.61;100719.28;5112711;28;20052;-66
2021/08/01 09:16:50;;;;;;;15.98;6.18;;;;;;;17.99;62.23;100723.84;5111623;28;20051;-66
2021/08/01 09:19:35;;;;;;;19.58;6.18;;;;;;;17.81;61.89;100721.72;5112455;28;20108;-66
2021/08/01 09:24:49;;;;;;;14.63;5.68;;;;;;;17.90;61.61;100724.22;5090010;27;20384;-64
2021/08/01 09:27:34;;;;;;;17.80;5.63;;;;;;;18.19;60.65;100725.72;5089443;28;20082;-64
2021/08/01 09:30:03;;;;;;;14.98;5.32;;;;;;;18.07;60.53;100722.00;5089374;28;20071;-66
2021/08/01 09:32:43;;;;;;;14.05;5.63;;;;;;;17.94;62.23;100729.00;5089536;28;20480;-66
2021/08/01 09:35:17;;;;;;;13.18;5.47;;;;;;;17.79;61.36;100737.19;5087760;28;20048;-66
2021/08/01 09:37:54;;;;;;;15.02;5.13;;;;;;;17.69;62.13;100735.91;5089127;28;20072;-66
2021/08/01 09:40:27;;;;;;;12.60;5.25;;;;;;;17.65;61.81;100736.31;5088289;28;20044;-66
2021/08/01 09:43:05;;;;;;;16.63;5.25;;;;;;;17.67;62.15;100743.34;5089636;28;20132;-66
2021/08/01 09:45:32;;;;;;;16.42;5.43;;;;;;;17.66;61.95;100734.44;5089204;28;20519;-66
2021/08/01 09:48:18;;;;;;;15.30;5.55;;;;;;;17.55;62.79;100738.53;5087992;28;20044;-66
2021/08/01 09:53:36;;;;;;;14.80;5.55;;;;;;;17.68;62.85;100750.34;5046568;27;1222655;-65
2021/08/01 09:56:18;;;;;;;12.52;5.30;;;;;;;17.63;62.38;100738.38;5089235;28;20047;-65
2021/08/01 09:58:47;;;;;;;17.77;5.07;;;;;;;17.69;61.92;100738.59;5089882;28;20071;-65
2021/08/01 10:01:15;;;;;;;15.90;5.63;;;;;;;17.68;61.83;100739.63;5089672;28;20041;-65
2021/08/01 10:03:44;;;;;;;20.60;5.55;;;;;;;17.82;62.08;100730.59;5089587;28;20059;-65
2021/08/01 10:06:14;;;;;;;14.23;6.25;;;;;;;17.89;62.33;100742.19;5089544;28;20044;-65
2021/08/01 10:11:24;;;;;;;14.85;5.45;;;;;;;18.19;61.68;100733.78;5110068;27;20377;-65
2021/08/01 10:13:54;;;;;;;15.23;5.45;;;;;;;18.05;61.81;100740.19;5108366;28;20040;-65
2021/08/01 10:16:21;;;;;;;18.67;5.68;;;;;;;18.03;62.81;100733.16;5110173;28;20561;-66
2021/08/01 10:18:50;;;;;;;17.85;5.93;;;;;;;17.96;62.74;100726.94;5109981;28;20040;-64
2021/08/01 10:21:20;;;;;;;13.93;5.63;;;;;;;18.24;61.70;100731.31;5075467;28;20058;-65
2021/08/01 10:23:57;;;;;;;15.63;5.63;;;;;;;18.40;60.21;100722.84;5110033;28;20385;-66
2021/08/01 10:26:47;;;;;;;14.75;5.32;;;;;;;18.84;58.46;100728.66;5108555;28;20518;-66
2021/08/01 10:29:22;;;;;;;12.10;5.40;;;;;;;19.00;58.36;100727.41;5109596;28;20067;-66
2021/08/01 10:31:55;;;;;;;17.77;5.90;;;;;;;19.21;58.27;100737.06;5109816;28;20040;-66
2021/08/01 10:35:02;;;;;;;17.38;5.80;;;;;;;18.93;59.72;100735.47;5090197;28;20044;-66
2021/08/01 10:37:55;;;;;;;15.65;6.00;;;;;;;18.92;60.19;100727.63;5109527;28;20070;-66
2021/08/01 10:40:27;;;;;;;13.23;5.20;;;;;;;19.07;60.15;100717.47;5109888;28;20040;-66
2021/08/01 10:43:00;;;;;;;15.85;5.50;;;;;;;19.29;59.00;100723.38;5108555;28;20127;-66
2021/08/01 10:45:27;;;;;;;12.57;5.35;;;;;;;19.40;58.39;100729.16;5109124;28;20050;-66
2021/08/01 10:47:58;;;;;;;11.68;4.90;;;;;;;19.17;57.47;100725.06;5108670;28;20500;-66
2021/08/01 10:50:28;;;;;;;16.35;5.57;;;;;;;19.14;58.54;100720.13;5109640;28;20492;-66
2021/08/01 10:53:24;;;;;;;14.63;5.57;;;;;;;19.36;57.70;100723.38;5109501;28;20382;-65
2021/08/01 10:56:14;;;;;;;12.98;4.95;;;;;;;19.04;58.30;100722.44;5109541;28;20047;-66
2021/08/01 10:58:41;;;;;;;13.48;5.03;;;;;;;19.09;57.72;100726.13;5109372;28;20040;-66
2021/08/01 11:01:09;;;;;;;16.95;5.50;;;;;;;19.14;57.26;100718.25;5109474;28;20044;-66
2021/08/01 11:03:41;;;;;;;13.15;5.40;;;;;;;19.01;58.34;100721.00;5108436;28;20036;-66
2021/08/01 11:09:12;;;;;;;14.32;5.22;;;;;;;19.04;59.49;100708.97;5129765;27;20378;-65
2021/08/01 11:11:48;;;;;;;13.65;5.20;;;;;;;19.31;59.89;100705.16;5130829;27;20442;-65
2021/08/01 11:14:53;;;;;;;14.70;5.63;;;;;;;19.72;58.78;100697.75;5129226;28;20119;-65
2021/08/01 11:23:01;;;;;;;15.45;5.25;;;;;;;20.07;58.20;100702.75;5089738;28;20546;-65
2021/08/01 11:25:31;;;;;;;13.00;4.50;;;;;;;20.06;56.47;100707.28;5080771;28;20099;-65
2021/08/01 11:28:21;;;;;;;20.85;5.60;;;;;;;20.02;55.94;100714.16;5049516;28;20088;-65
2021/08/01 11:33:45;;;;;;;14.75;4.70;;;;;;;20.16;53.45;100701.44;5110263;27;19916;-65
2021/08/01 11:52:13;;;;;;;14.30;5.43;;;;;;;20.51;56.36;100712.53;5109961;27;20369;-65
2021/08/01 11:54:43;;;;;;;15.07;5.32;;;;;;;20.82;54.85;100701.94;5108553;28;20032;-65
2021/08/01 11:57:13;;;;;;;10.07;5.35;;;;;;;20.89;54.88;100706.22;5109967;28;20040;-65
2021/08/01 11:59:42;;;;;;;16.55;5.43;;;;;;;21.24;54.10;100699.41;5091885;28;20062;-65
2021/08/01 12:02:14;;;;;;;12.60;5.35;;;;;;;21.39;54.49;100699.00;5109604;28;20036;-65
2021/08/01 12:05:00;;;;;;;10.43;5.28;;;;;;;21.63;52.56;100686.50;5108658;28;20062;-64
2021/08/01 12:07:42;;;;;;;;;;;;;;;21.79;51.99;100691.25;5107437;28;20494;-65
2021/08/01 12:10:26;;;;;;;14.20;5.30;;;;;;;21.89;51.61;100687.97;5109695;28;19920;-65